sensor_id;sensor_type;location;lat;lon;timestamp;P1;durP1;ratioP1;P2;durP2;ratioP2
27985;SDS011;15453;53.692;10.168;2023-04-21T00:02:03;13.27;;;8.38;;
27985;SDS011;15453;53.692;10.168;2023-04-21T00:04:28;17.17;;;8.98;;
27985;SDS011;15453;53.692;10.168;2023-04-21T00:06:54;16.05;;;8.70;;
27985;SDS011;15453;53.692;10.168;2023-04-21T00:09:19;17.80;;;8.60;;
27985;SDS011;15453;53.692;10.168;2023-04-21T00:11:45;15.40;;;8.50;;
27985;SDS011;15453;53.692;10.168;2023-04-21T00:14:11;21.75;;;9.55;;
27985;SDS011;15453;53.692;10.168;2023-04-21T00:16:36;15.32;;;9.07;;
27985;SDS011;15453;53.692;10.168;2023-04-21T00:19:01;17.25;;;8.95;;
27985;SDS011;15453;53.692;10.168;2023-04-21T00:21:30;17.88;;;9.32;;
27985;SDS011;15453;53.692;10.168;2023-04-21T00:23:56;16.88;;;9.48;;
27985;SDS011;15453;53.692;10.168;2023-04-21T00:26:22;17.73;;;9.10;;
27985;SDS011;15453;53.692;10.168;2023-04-21T00:28:47;19.00;;;9.57;;
27985;SDS011;15453;53.692;10.168;2023-04-21T00:31:12;18.27;;;10.00;;
27985;SDS011;15453;53.692;10.168;2023-04-21T00:33:37;21.10;;;9.60;;
27985;SDS011;15453;53.692;10.168;2023-04-21T00:36:03;16.25;;;9.15;;
27985;SDS011;15453;53.692;10.168;2023-04-21T00:38:28;17.25;;;9.77;;
27985;SDS011;15453;53.692;10.168;2023-04-21T00:40:53;18.83;;;9.55;;
27985;SDS011;15453;53.692;10.168;2023-04-21T00:43:19;19.60;;;9.73;;
27985;SDS011;15453;53.692;10.168;2023-04-21T00:45:45;19.25;;;9.13;;
27985;SDS011;15453;53.692;10.168;2023-04-21T00:48:11;17.83;;;9.13;;
27985;SDS011;15453;53.692;10.168;2023-04-21T00:50:36;15.40;;;8.68;;
27985;SDS011;15453;53.692;10.168;2023-04-21T00:53:01;15.70;;;8.73;;
27985;SDS011;15453;53.692;10.168;2023-04-21T00:55:27;21.52;;;10.05;;
27985;SDS011;15453;53.692;10.168;2023-04-21T00:57:53;15.13;;;8.52;;
27985;SDS011;15453;53.692;10.168;2023-04-21T01:00:20;14.60;;;8.50;;
27985;SDS011;15453;53.692;10.168;2023-04-21T01:02:45;13.93;;;7.80;;
27985;SDS011;15453;53.692;10.168;2023-04-21T01:05:11;17.40;;;9.07;;
27985;SDS011;15453;53.692;10.168;2023-04-21T01:07:36;18.38;;;9.50;;
27985;SDS011;15453;53.692;10.168;2023-04-21T01:10:02;16.75;;;8.90;;
27985;SDS011;15453;53.692;10.168;2023-04-21T01:12:28;15.88;;;8.85;;
27985;SDS011;15453;53.692;10.168;2023-04-21T01:14:53;13.18;;;8.02;;
27985;SDS011;15453;53.692;10.168;2023-04-21T01:17:19;13.88;;;8.38;;
27985;SDS011;15453;53.692;10.168;2023-04-21T01:19:44;15.80;;;7.85;;
27985;SDS011;15453;53.692;10.168;2023-04-21T01:22:11;18.83;;;8.80;;
27985;SDS011;15453;53.692;10.168;2023-04-21T01:24:40;18.98;;;8.32;;
27985;SDS011;15453;53.692;10.168;2023-04-21T01:27:08;17.73;;;8.45;;
27985;SDS011;15453;53.692;10.168;2023-04-21T01:29:35;15.43;;;8.35;;
27985;SDS011;15453;53.692;10.168;2023-04-21T01:32:07;20.23;;;9.25;;
27985;SDS011;15453;53.692;10.168;2023-04-21T01:34:35;15.52;;;8.07;;
27985;SDS011;15453;53.692;10.168;2023-04-21T01:37:00;14.35;;;8.02;;
27985;SDS011;15453;53.692;10.168;2023-04-21T01:39:26;17.50;;;7.93;;
27985;SDS011;15453;53.692;10.168;2023-04-21T01:41:52;18.50;;;8.43;;
27985;SDS011;15453;53.692;10.168;2023-04-21T01:44:19;16.27;;;8.13;;
27985;SDS011;15453;53.692;10.168;2023-04-21T01:46:44;13.05;;;7.57;;
27985;SDS011;15453;53.692;10.168;2023-04-21T01:49:10;16.48;;;7.90;;
27985;SDS011;15453;53.692;10.168;2023-04-21T01:51:35;14.23;;;7.50;;
27985;SDS011;15453;53.692;10.168;2023-04-21T01:54:00;15.55;;;7.57;;
27985;SDS011;15453;53.692;10.168;2023-04-21T01:56:26;14.70;;;8.02;;
27985;SDS011;15453;53.692;10.168;2023-04-21T01:58:51;16.23;;;8.38;;
27985;SDS011;15453;53.692;10.168;2023-04-21T02:01:17;16.50;;;8.38;;
27985;SDS011;15453;53.692;10.168;2023-04-21T02:03:42;15.43;;;7.78;;
27985;SDS011;15453;53.692;10.168;2023-04-21T02:06:08;16.90;;;8.65;;
27985;SDS011;15453;53.692;10.168;2023-04-21T02:08:33;19.33;;;8.48;;
27985;SDS011;15453;53.692;10.168;2023-04-21T02:11:00;20.63;;;8.43;;
27985;SDS011;15453;53.692;10.168;2023-04-21T02:13:25;16.63;;;7.30;;
27985;SDS011;15453;53.692;10.168;2023-04-21T02:15:50;15.25;;;8.38;;
27985;SDS011;15453;53.692;10.168;2023-04-21T02:18:16;13.55;;;7.05;;
27985;SDS011;15453;53.692;10.168;2023-04-21T02:20:41;16.75;;;7.78;;
27985;SDS011;15453;53.692;10.168;2023-04-21T02:23:07;12.73;;;7.43;;
27985;SDS011;15453;53.692;10.168;2023-04-21T02:25:32;18.17;;;8.18;;
27985;SDS011;15453;53.692;10.168;2023-04-21T02:27:57;14.65;;;8.15;;
27985;SDS011;15453;53.692;10.168;2023-04-21T02:30:22;16.85;;;7.60;;
27985;SDS011;15453;53.692;10.168;2023-04-21T02:32:48;15.25;;;7.93;;
27985;SDS011;15453;53.692;10.168;2023-04-21T02:35:13;17.65;;;7.85;;
27985;SDS011;15453;53.692;10.168;2023-04-21T02:37:38;14.07;;;7.80;;
27985;SDS011;15453;53.692;10.168;2023-04-21T02:40:04;15.38;;;7.40;;
27985;SDS011;15453;53.692;10.168;2023-04-21T02:42:31;13.75;;;7.20;;
27985;SDS011;15453;53.692;10.168;2023-04-21T02:44:57;12.65;;;7.32;;
27985;SDS011;15453;53.692;10.168;2023-04-21T02:47:22;21.40;;;8.27;;
27985;SDS011;15453;53.692;10.168;2023-04-21T02:49:47;17.05;;;8.65;;
27985;SDS011;15453;53.692;10.168;2023-04-21T02:52:12;12.27;;;7.38;;
27985;SDS011;15453;53.692;10.168;2023-04-21T02:54:38;14.15;;;7.30;;
27985;SDS011;15453;53.692;10.168;2023-04-21T02:57:03;13.70;;;7.32;;
27985;SDS011;15453;53.692;10.168;2023-04-21T02:59:28;16.58;;;8.23;;
27985;SDS011;15453;53.692;10.168;2023-04-21T03:01:54;11.35;;;7.30;;
27985;SDS011;15453;53.692;10.168;2023-04-21T03:04:19;14.88;;;7.57;;
27985;SDS011;15453;53.692;10.168;2023-04-21T03:06:44;14.13;;;7.75;;
27985;SDS011;15453;53.692;10.168;2023-04-21T03:09:09;14.80;;;7.55;;
27985;SDS011;15453;53.692;10.168;2023-04-21T03:11:35;15.38;;;7.75;;
27985;SDS011;15453;53.692;10.168;2023-04-21T03:14:00;12.25;;;7.63;;
27985;SDS011;15453;53.692;10.168;2023-04-21T03:16:25;13.70;;;7.40;;
27985;SDS011;15453;53.692;10.168;2023-04-21T03:18:51;15.55;;;7.53;;
27985;SDS011;15453;53.692;10.168;2023-04-21T03:21:17;18.23;;;8.52;;
27985;SDS011;15453;53.692;10.168;2023-04-21T03:23:42;12.52;;;6.97;;
27985;SDS011;15453;53.692;10.168;2023-04-21T03:26:08;13.63;;;7.88;;
27985;SDS011;15453;53.692;10.168;2023-04-21T03:28:34;11.75;;;6.68;;
27985;SDS011;15453;53.692;10.168;2023-04-21T03:30:59;13.52;;;7.10;;
27985;SDS011;15453;53.692;10.168;2023-04-21T03:33:24;12.65;;;7.70;;
27985;SDS011;15453;53.692;10.168;2023-04-21T03:35:50;12.93;;;6.97;;
27985;SDS011;15453;53.692;10.168;2023-04-21T03:38:15;14.13;;;7.55;;
27985;SDS011;15453;53.692;10.168;2023-04-21T03:40:40;13.55;;;6.93;;
27985;SDS011;15453;53.692;10.168;2023-04-21T03:43:05;14.68;;;7.13;;
27985;SDS011;15453;53.692;10.168;2023-04-21T03:45:31;12.93;;;7.43;;
27985;SDS011;15453;53.692;10.168;2023-04-21T03:47:56;16.58;;;7.85;;
27985;SDS011;15453;53.692;10.168;2023-04-21T03:50:21;14.93;;;8.02;;
27985;SDS011;15453;53.692;10.168;2023-04-21T03:52:47;12.35;;;6.53;;
27985;SDS011;15453;53.692;10.168;2023-04-21T03:55:12;10.98;;;7.03;;
27985;SDS011;15453;53.692;10.168;2023-04-21T03:57:38;15.88;;;7.05;;
27985;SDS011;15453;53.692;10.168;2023-04-21T04:00:05;15.32;;;7.53;;
27985;SDS011;15453;53.692;10.168;2023-04-21T04:02:31;11.98;;;7.03;;
27985;SDS011;15453;53.692;10.168;2023-04-21T04:04:56;13.07;;;8.02;;
27985;SDS011;15453;53.692;10.168;2023-04-21T04:07:21;12.88;;;6.72;;
27985;SDS011;15453;53.692;10.168;2023-04-21T04:09:47;17.55;;;7.32;;
27985;SDS011;15453;53.692;10.168;2023-04-21T04:12:12;11.90;;;6.90;;
27985;SDS011;15453;53.692;10.168;2023-04-21T04:14:37;14.70;;;7.63;;
27985;SDS011;15453;53.692;10.168;2023-04-21T04:17:03;13.13;;;7.13;;
27985;SDS011;15453;53.692;10.168;2023-04-21T04:19:29;15.55;;;8.00;;
27985;SDS011;15453;53.692;10.168;2023-04-21T04:21:56;14.23;;;7.38;;
27985;SDS011;15453;53.692;10.168;2023-04-21T04:24:22;15.45;;;7.85;;
27985;SDS011;15453;53.692;10.168;2023-04-21T04:26:48;12.77;;;7.35;;
27985;SDS011;15453;53.692;10.168;2023-04-21T04:29:13;14.40;;;7.28;;
27985;SDS011;15453;53.692;10.168;2023-04-21T04:31:40;15.82;;;7.90;;
27985;SDS011;15453;53.692;10.168;2023-04-21T04:34:05;14.10;;;7.22;;
27985;SDS011;15453;53.692;10.168;2023-04-21T04:36:30;17.77;;;8.15;;
27985;SDS011;15453;53.692;10.168;2023-04-21T04:38:56;15.30;;;7.22;;
27985;SDS011;15453;53.692;10.168;2023-04-21T04:41:22;15.25;;;7.60;;
27985;SDS011;15453;53.692;10.168;2023-04-21T04:43:48;12.32;;;7.00;;
27985;SDS011;15453;53.692;10.168;2023-04-21T04:46:13;15.85;;;7.60;;
27985;SDS011;15453;53.692;10.168;2023-04-21T04:48:38;14.77;;;7.38;;
27985;SDS011;15453;53.692;10.168;2023-04-21T04:51:04;18.85;;;8.00;;
27985;SDS011;15453;53.692;10.168;2023-04-21T04:53:30;12.93;;;7.20;;
27985;SDS011;15453;53.692;10.168;2023-04-21T04:55:55;13.27;;;7.57;;
27985;SDS011;15453;53.692;10.168;2023-04-21T04:58:22;18.45;;;8.20;;
27985;SDS011;15453;53.692;10.168;2023-04-21T05:00:48;13.15;;;7.57;;
27985;SDS011;15453;53.692;10.168;2023-04-21T05:03:13;12.98;;;6.65;;
27985;SDS011;15453;53.692;10.168;2023-04-21T05:05:38;10.88;;;6.72;;
27985;SDS011;15453;53.692;10.168;2023-04-21T05:08:04;12.60;;;7.18;;
27985;SDS011;15453;53.692;10.168;2023-04-21T05:10:29;12.43;;;7.00;;
27985;SDS011;15453;53.692;10.168;2023-04-21T05:12:55;13.23;;;7.45;;
27985;SDS011;15453;53.692;10.168;2023-04-21T05:15:20;13.23;;;6.93;;
27985;SDS011;15453;53.692;10.168;2023-04-21T05:17:46;11.88;;;6.60;;
27985;SDS011;15453;53.692;10.168;2023-04-21T05:20:12;13.65;;;8.10;;
27985;SDS011;15453;53.692;10.168;2023-04-21T05:22:37;15.10;;;7.82;;
27985;SDS011;15453;53.692;10.168;2023-04-21T05:25:03;15.75;;;7.43;;
27985;SDS011;15453;53.692;10.168;2023-04-21T05:27:29;15.63;;;7.43;;
27985;SDS011;15453;53.692;10.168;2023-04-21T05:29:54;12.68;;;7.03;;
27985;SDS011;15453;53.692;10.168;2023-04-21T05:32:19;13.30;;;7.20;;
27985;SDS011;15453;53.692;10.168;2023-04-21T05:34:45;11.00;;;6.30;;
27985;SDS011;15453;53.692;10.168;2023-04-21T05:37:10;13.52;;;6.72;;
27985;SDS011;15453;53.692;10.168;2023-04-21T05:39:36;13.27;;;7.15;;
27985;SDS011;15453;53.692;10.168;2023-04-21T05:42:01;16.52;;;7.85;;
27985;SDS011;15453;53.692;10.168;2023-04-21T05:44:27;13.73;;;6.65;;
27985;SDS011;15453;53.692;10.168;2023-04-21T05:46:52;12.57;;;6.45;;
27985;SDS011;15453;53.692;10.168;2023-04-21T05:49:17;12.40;;;6.97;;
27985;SDS011;15453;53.692;10.168;2023-04-21T05:51:43;13.52;;;7.05;;
27985;SDS011;15453;53.692;10.168;2023-04-21T05:54:08;12.32;;;6.25;;
27985;SDS011;15453;53.692;10.168;2023-04-21T05:56:33;10.77;;;6.20;;
27985;SDS011;15453;53.692;10.168;2023-04-21T05:58:58;11.43;;;6.80;;
27985;SDS011;15453;53.692;10.168;2023-04-21T06:01:24;14.60;;;6.85;;
27985;SDS011;15453;53.692;10.168;2023-04-21T06:03:49;13.35;;;7.00;;
27985;SDS011;15453;53.692;10.168;2023-04-21T06:06:14;10.88;;;7.28;;
27985;SDS011;15453;53.692;10.168;2023-04-21T06:08:40;13.30;;;6.63;;
27985;SDS011;15453;53.692;10.168;2023-04-21T06:11:05;11.77;;;7.07;;
27985;SDS011;15453;53.692;10.168;2023-04-21T06:13:31;10.20;;;6.85;;
27985;SDS011;15453;53.692;10.168;2023-04-21T06:15:56;17.77;;;7.38;;
27985;SDS011;15453;53.692;10.168;2023-04-21T06:18:21;17.58;;;7.13;;
27985;SDS011;15453;53.692;10.168;2023-04-21T06:20:54;11.82;;;6.88;;
27985;SDS011;15453;53.692;10.168;2023-04-21T06:23:20;11.82;;;6.45;;
27985;SDS011;15453;53.692;10.168;2023-04-21T06:25:45;10.70;;;6.43;;
27985;SDS011;15453;53.692;10.168;2023-04-21T06:28:11;11.05;;;6.35;;
27985;SDS011;15453;53.692;10.168;2023-04-21T06:30:36;11.43;;;7.00;;
27985;SDS011;15453;53.692;10.168;2023-04-21T06:33:01;10.65;;;6.65;;
27985;SDS011;15453;53.692;10.168;2023-04-21T06:35:28;12.57;;;7.32;;
27985;SDS011;15453;53.692;10.168;2023-04-21T06:37:53;11.07;;;6.50;;
27985;SDS011;15453;53.692;10.168;2023-04-21T06:40:18;10.63;;;6.88;;
27985;SDS011;15453;53.692;10.168;2023-04-21T06:42:44;13.10;;;6.82;;
27985;SDS011;15453;53.692;10.168;2023-04-21T06:45:09;12.25;;;7.18;;
27985;SDS011;15453;53.692;10.168;2023-04-21T06:47:35;12.18;;;7.20;;
27985;SDS011;15453;53.692;10.168;2023-04-21T06:50:00;12.05;;;6.90;;
27985;SDS011;15453;53.692;10.168;2023-04-21T06:52:25;10.57;;;6.30;;
27985;SDS011;15453;53.692;10.168;2023-04-21T06:54:50;11.30;;;6.70;;
27985;SDS011;15453;53.692;10.168;2023-04-21T06:57:16;11.68;;;6.53;;
27985;SDS011;15453;53.692;10.168;2023-04-21T06:59:41;11.05;;;7.05;;
27985;SDS011;15453;53.692;10.168;2023-04-21T07:02:07;13.10;;;6.78;;
27985;SDS011;15453;53.692;10.168;2023-04-21T07:04:32;11.18;;;6.45;;
27985;SDS011;15453;53.692;10.168;2023-04-21T07:06:57;11.98;;;6.85;;
27985;SDS011;15453;53.692;10.168;2023-04-21T07:09:22;15.05;;;7.22;;
27985;SDS011;15453;53.692;10.168;2023-04-21T07:11:48;14.60;;;6.82;;
27985;SDS011;15453;53.692;10.168;2023-04-21T07:14:13;10.90;;;6.55;;
27985;SDS011;15453;53.692;10.168;2023-04-21T07:16:38;11.57;;;7.35;;
27985;SDS011;15453;53.692;10.168;2023-04-21T07:19:03;14.82;;;6.78;;
27985;SDS011;15453;53.692;10.168;2023-04-21T07:21:29;12.13;;;6.47;;
27985;SDS011;15453;53.692;10.168;2023-04-21T07:23:56;15.38;;;7.03;;
27985;SDS011;15453;53.692;10.168;2023-04-21T07:26:22;13.70;;;6.95;;
27985;SDS011;15453;53.692;10.168;2023-04-21T07:28:47;15.18;;;7.80;;
27985;SDS011;15453;53.692;10.168;2023-04-21T07:31:14;10.63;;;6.90;;
27985;SDS011;15453;53.692;10.168;2023-04-21T07:33:39;11.48;;;7.03;;
27985;SDS011;15453;53.692;10.168;2023-04-21T07:36:05;14.82;;;7.00;;
27985;SDS011;15453;53.692;10.168;2023-04-21T07:38:30;9.20;;;6.30;;
27985;SDS011;15453;53.692;10.168;2023-04-21T07:40:55;10.35;;;6.53;;
27985;SDS011;15453;53.692;10.168;2023-04-21T07:43:21;10.63;;;6.25;;
27985;SDS011;15453;53.692;10.168;2023-04-21T07:45:46;18.15;;;6.88;;
27985;SDS011;15453;53.692;10.168;2023-04-21T07:48:11;10.57;;;6.30;;
27985;SDS011;15453;53.692;10.168;2023-04-21T07:50:36;11.93;;;6.05;;
27985;SDS011;15453;53.692;10.168;2023-04-21T07:53:01;13.07;;;6.55;;
27985;SDS011;15453;53.692;10.168;2023-04-21T07:55:27;13.65;;;7.38;;
27985;SDS011;15453;53.692;10.168;2023-04-21T07:57:53;10.02;;;6.55;;
27985;SDS011;15453;53.692;10.168;2023-04-21T08:00:18;11.05;;;6.55;;
27985;SDS011;15453;53.692;10.168;2023-04-21T08:02:44;10.77;;;6.65;;
27985;SDS011;15453;53.692;10.168;2023-04-21T08:05:09;10.00;;;6.40;;
27985;SDS011;15453;53.692;10.168;2023-04-21T08:07:35;10.52;;;6.43;;
27985;SDS011;15453;53.692;10.168;2023-04-21T08:10:00;11.15;;;7.40;;
27985;SDS011;15453;53.692;10.168;2023-04-21T08:12:26;12.15;;;6.57;;
27985;SDS011;15453;53.692;10.168;2023-04-21T08:14:51;11.77;;;6.47;;
27985;SDS011;15453;53.692;10.168;2023-04-21T08:17:17;13.80;;;7.43;;
27985;SDS011;15453;53.692;10.168;2023-04-21T08:19:42;9.95;;;6.60;;
27985;SDS011;15453;53.692;10.168;2023-04-21T08:22:07;10.70;;;6.97;;
27985;SDS011;15453;53.692;10.168;2023-04-21T08:24:33;10.32;;;6.78;;
27985;SDS011;15453;53.692;10.168;2023-04-21T08:26:58;10.82;;;7.22;;
27985;SDS011;15453;53.692;10.168;2023-04-21T08:29:26;12.07;;;6.95;;
27985;SDS011;15453;53.692;10.168;2023-04-21T08:31:51;10.13;;;6.90;;
27985;SDS011;15453;53.692;10.168;2023-04-21T08:34:17;7.90;;;6.20;;
27985;SDS011;15453;53.692;10.168;2023-04-21T08:36:43;12.35;;;6.68;;
27985;SDS011;15453;53.692;10.168;2023-04-21T08:39:10;11.93;;;6.50;;
27985;SDS011;15453;53.692;10.168;2023-04-21T08:41:37;10.77;;;6.38;;
27985;SDS011;15453;53.692;10.168;2023-04-21T08:44:05;15.07;;;6.70;;
27985;SDS011;15453;53.692;10.168;2023-04-21T08:46:30;11.88;;;6.32;;
27985;SDS011;15453;53.692;10.168;2023-04-21T08:48:57;11.60;;;7.20;;
27985;SDS011;15453;53.692;10.168;2023-04-21T08:51:23;11.27;;;6.93;;
27985;SDS011;15453;53.692;10.168;2023-04-21T08:53:53;9.77;;;6.53;;
27985;SDS011;15453;53.692;10.168;2023-04-21T08:56:19;12.05;;;7.30;;
27985;SDS011;15453;53.692;10.168;2023-04-21T08:58:44;10.27;;;6.50;;
27985;SDS011;15453;53.692;10.168;2023-04-21T09:01:10;11.10;;;6.50;;
27985;SDS011;15453;53.692;10.168;2023-04-21T09:03:35;10.68;;;6.22;;
27985;SDS011;15453;53.692;10.168;2023-04-21T09:06:02;10.70;;;7.00;;
27985;SDS011;15453;53.692;10.168;2023-04-21T09:08:29;11.77;;;6.55;;
27985;SDS011;15453;53.692;10.168;2023-04-21T09:10:55;9.98;;;6.38;;
27985;SDS011;15453;53.692;10.168;2023-04-21T09:13:27;11.65;;;6.40;;
27985;SDS011;15453;53.692;10.168;2023-04-21T09:15:54;13.40;;;7.10;;
27985;SDS011;15453;53.692;10.168;2023-04-21T09:18:20;12.93;;;6.40;;
27985;SDS011;15453;53.692;10.168;2023-04-21T09:20:48;10.88;;;6.63;;
27985;SDS011;15453;53.692;10.168;2023-04-21T09:23:14;11.35;;;6.85;;
27985;SDS011;15453;53.692;10.168;2023-04-21T09:25:40;12.25;;;6.53;;
27985;SDS011;15453;53.692;10.168;2023-04-21T09:28:07;12.98;;;6.60;;
27985;SDS011;15453;53.692;10.168;2023-04-21T09:30:34;10.13;;;5.97;;
27985;SDS011;15453;53.692;10.168;2023-04-21T09:33:00;11.50;;;6.78;;
27985;SDS011;15453;53.692;10.168;2023-04-21T09:35:32;14.00;;;6.55;;
27985;SDS011;15453;53.692;10.168;2023-04-21T09:38:01;12.65;;;7.10;;
27985;SDS011;15453;53.692;10.168;2023-04-21T09:40:30;10.95;;;7.32;;
27985;SDS011;15453;53.692;10.168;2023-04-21T09:42:56;9.98;;;6.53;;
27985;SDS011;15453;53.692;10.168;2023-04-21T09:45:25;8.70;;;6.30;;
27985;SDS011;15453;53.692;10.168;2023-04-21T09:47:54;10.63;;;7.00;;
27985;SDS011;15453;53.692;10.168;2023-04-21T09:50:21;10.13;;;6.53;;
27985;SDS011;15453;53.692;10.168;2023-04-21T09:52:47;11.35;;;7.10;;
27985;SDS011;15453;53.692;10.168;2023-04-21T09:55:15;11.25;;;6.88;;
27985;SDS011;15453;53.692;10.168;2023-04-21T09:57:42;13.02;;;6.75;;
27985;SDS011;15453;53.692;10.168;2023-04-21T10:00:11;10.75;;;6.90;;
27985;SDS011;15453;53.692;10.168;2023-04-21T10:02:41;9.68;;;6.85;;
27985;SDS011;15453;53.692;10.168;2023-04-21T10:05:08;11.15;;;7.20;;
27985;SDS011;15453;53.692;10.168;2023-04-21T10:07:34;9.98;;;6.40;;
27985;SDS011;15453;53.692;10.168;2023-04-21T10:10:00;9.93;;;6.68;;
27985;SDS011;15453;53.692;10.168;2023-04-21T10:12:25;11.10;;;6.63;;
27985;SDS011;15453;53.692;10.168;2023-04-21T10:14:52;10.77;;;7.00;;
27985;SDS011;15453;53.692;10.168;2023-04-21T10:17:19;9.38;;;6.25;;
27985;SDS011;15453;53.692;10.168;2023-04-21T10:19:48;11.52;;;7.00;;
27985;SDS011;15453;53.692;10.168;2023-04-21T10:22:25;13.30;;;6.55;;
27985;SDS011;15453;53.692;10.168;2023-04-21T10:24:53;13.82;;;5.95;;
27985;SDS011;15453;53.692;10.168;2023-04-21T10:27:30;9.68;;;6.25;;
27985;SDS011;15453;53.692;10.168;2023-04-21T10:30:16;10.05;;;6.03;;
27985;SDS011;15453;53.692;10.168;2023-04-21T10:32:43;11.02;;;6.55;;
27985;SDS011;15453;53.692;10.168;2023-04-21T10:35:12;14.43;;;6.80;;
27985;SDS011;15453;53.692;10.168;2023-04-21T10:37:40;11.13;;;6.32;;
27985;SDS011;15453;53.692;10.168;2023-04-21T10:40:07;15.20;;;6.63;;
27985;SDS011;15453;53.692;10.168;2023-04-21T10:42:54;11.32;;;6.47;;
27985;SDS011;15453;53.692;10.168;2023-04-21T10:45:19;11.60;;;6.68;;
27985;SDS011;15453;53.692;10.168;2023-04-21T10:47:45;9.70;;;6.45;;
27985;SDS011;15453;53.692;10.168;2023-04-21T10:50:23;12.25;;;6.68;;
27985;SDS011;15453;53.692;10.168;2023-04-21T10:55:21;12.27;;;6.18;;
27985;SDS011;15453;53.692;10.168;2023-04-21T10:57:50;9.52;;;6.57;;
27985;SDS011;15453;53.692;10.168;2023-04-21T11:00:17;13.82;;;7.80;;
27985;SDS011;15453;53.692;10.168;2023-04-21T11:02:51;9.93;;;7.05;;
27985;SDS011;15453;53.692;10.168;2023-04-21T11:05:18;12.38;;;6.40;;
27985;SDS011;15453;53.692;10.168;2023-04-21T11:07:43;12.18;;;6.50;;
27985;SDS011;15453;53.692;10.168;2023-04-21T11:10:09;10.30;;;6.18;;
27985;SDS011;15453;53.692;10.168;2023-04-21T11:12:38;11.98;;;6.07;;
27985;SDS011;15453;53.692;10.168;2023-04-21T11:15:05;11.70;;;6.82;;
27985;SDS011;15453;53.692;10.168;2023-04-21T11:17:33;9.68;;;5.80;;
27985;SDS011;15453;53.692;10.168;2023-04-21T11:20:00;12.52;;;6.40;;
27985;SDS011;15453;53.692;10.168;2023-04-21T11:22:26;12.50;;;5.80;;
27985;SDS011;15453;53.692;10.168;2023-04-21T11:24:54;7.95;;;5.88;;
27985;SDS011;15453;53.692;10.168;2023-04-21T11:27:21;9.07;;;6.03;;
27985;SDS011;15453;53.692;10.168;2023-04-21T11:29:47;14.00;;;6.45;;
27985;SDS011;15453;53.692;10.168;2023-04-21T11:32:13;14.50;;;7.00;;
27985;SDS011;15453;53.692;10.168;2023-04-21T11:34:39;9.70;;;6.45;;
27985;SDS011;15453;53.692;10.168;2023-04-21T11:37:05;9.38;;;5.75;;
27985;SDS011;15453;53.692;10.168;2023-04-21T11:39:31;11.82;;;6.47;;
27985;SDS011;15453;53.692;10.168;2023-04-21T11:41:57;10.45;;;5.75;;
27985;SDS011;15453;53.692;10.168;2023-04-21T11:44:35;9.82;;;6.15;;
27985;SDS011;15453;53.692;10.168;2023-04-21T11:47:12;8.85;;;5.60;;
27985;SDS011;15453;53.692;10.168;2023-04-21T11:49:45;10.98;;;5.70;;
27985;SDS011;15453;53.692;10.168;2023-04-21T11:52:11;10.20;;;5.80;;
27985;SDS011;15453;53.692;10.168;2023-04-21T11:54:44;11.55;;;5.75;;
27985;SDS011;15453;53.692;10.168;2023-04-21T11:57:10;9.00;;;5.93;;
27985;SDS011;15453;53.692;10.168;2023-04-21T11:59:35;10.52;;;5.25;;
27985;SDS011;15453;53.692;10.168;2023-04-21T12:02:00;18.30;;;6.13;;
27985;SDS011;15453;53.692;10.168;2023-04-21T12:04:25;11.07;;;5.75;;
27985;SDS011;15453;53.692;10.168;2023-04-21T12:06:58;11.15;;;6.00;;
27985;SDS011;15453;53.692;10.168;2023-04-21T12:09:24;12.35;;;5.40;;
27985;SDS011;15453;53.692;10.168;2023-04-21T12:11:50;13.52;;;6.15;;
27985;SDS011;15453;53.692;10.168;2023-04-21T12:14:18;11.57;;;6.05;;
27985;SDS011;15453;53.692;10.168;2023-04-21T12:16:47;11.13;;;5.80;;
27985;SDS011;15453;53.692;10.168;2023-04-21T12:19:21;10.77;;;5.63;;
27985;SDS011;15453;53.692;10.168;2023-04-21T12:21:51;8.15;;;4.90;;
27985;SDS011;15453;53.692;10.168;2023-04-21T12:24:17;9.98;;;5.50;;
27985;SDS011;15453;53.692;10.168;2023-04-21T12:26:42;10.00;;;5.78;;
27985;SDS011;15453;53.692;10.168;2023-04-21T12:29:08;14.40;;;6.03;;
27985;SDS011;15453;53.692;10.168;2023-04-21T12:31:33;8.90;;;5.70;;
27985;SDS011;15453;53.692;10.168;2023-04-21T12:33:58;9.25;;;5.65;;
27985;SDS011;15453;53.692;10.168;2023-04-21T12:36:23;7.13;;;4.93;;
27985;SDS011;15453;53.692;10.168;2023-04-21T12:38:51;12.57;;;5.53;;
27985;SDS011;15453;53.692;10.168;2023-04-21T12:41:17;10.10;;;5.53;;
27985;SDS011;15453;53.692;10.168;2023-04-21T12:43:42;9.88;;;4.78;;
27985;SDS011;15453;53.692;10.168;2023-04-21T12:46:07;9.83;;;5.70;;
27985;SDS011;15453;53.692;10.168;2023-04-21T12:48:33;10.25;;;6.00;;
27985;SDS011;15453;53.692;10.168;2023-04-21T12:50:58;10.30;;;5.15;;
27985;SDS011;15453;53.692;10.168;2023-04-21T12:53:23;11.93;;;6.20;;
27985;SDS011;15453;53.692;10.168;2023-04-21T12:55:49;15.98;;;6.18;;
27985;SDS011;15453;53.692;10.168;2023-04-21T12:58:14;9.80;;;5.53;;
27985;SDS011;15453;53.692;10.168;2023-04-21T13:00:40;10.82;;;5.60;;
27985;SDS011;15453;53.692;10.168;2023-04-21T13:03:06;9.43;;;4.85;;
27985;SDS011;15453;53.692;10.168;2023-04-21T13:05:31;8.68;;;5.13;;
27985;SDS011;15453;53.692;10.168;2023-04-21T13:07:57;12.38;;;6.22;;
27985;SDS011;15453;53.692;10.168;2023-04-21T13:10:22;7.15;;;4.60;;
27985;SDS011;15453;53.692;10.168;2023-04-21T13:12:49;10.55;;;5.28;;
27985;SDS011;15453;53.692;10.168;2023-04-21T13:15:14;9.32;;;4.93;;
27985;SDS011;15453;53.692;10.168;2023-04-21T13:17:39;8.75;;;4.68;;
27985;SDS011;15453;53.692;10.168;2023-04-21T13:20:05;8.43;;;5.05;;
27985;SDS011;15453;53.692;10.168;2023-04-21T13:22:31;12.68;;;5.28;;
27985;SDS011;15453;53.692;10.168;2023-04-21T13:24:56;12.30;;;6.13;;
27985;SDS011;15453;53.692;10.168;2023-04-21T13:27:21;10.02;;;5.50;;
27985;SDS011;15453;53.692;10.168;2023-04-21T13:29:46;9.02;;;5.00;;
27985;SDS011;15453;53.692;10.168;2023-04-21T13:32:13;13.15;;;5.43;;
27985;SDS011;15453;53.692;10.168;2023-04-21T13:34:38;8.52;;;4.90;;
27985;SDS011;15453;53.692;10.168;2023-04-21T13:37:03;9.98;;;5.20;;
27985;SDS011;15453;53.692;10.168;2023-04-21T13:39:29;8.50;;;5.13;;
27985;SDS011;15453;53.692;10.168;2023-04-21T13:41:55;8.88;;;4.85;;
27985;SDS011;15453;53.692;10.168;2023-04-21T13:44:20;9.70;;;5.00;;
27985;SDS011;15453;53.692;10.168;2023-04-21T13:46:45;11.32;;;4.63;;
27985;SDS011;15453;53.692;10.168;2023-04-21T13:49:11;8.75;;;4.72;;
27985;SDS011;15453;53.692;10.168;2023-04-21T13:51:36;8.23;;;4.68;;
27985;SDS011;15453;53.692;10.168;2023-04-21T13:54:02;9.13;;;5.40;;
27985;SDS011;15453;53.692;10.168;2023-04-21T13:56:27;7.40;;;4.60;;
27985;SDS011;15453;53.692;10.168;2023-04-21T13:58:52;8.20;;;4.82;;
27985;SDS011;15453;53.692;10.168;2023-04-21T14:01:19;8.40;;;5.07;;
27985;SDS011;15453;53.692;10.168;2023-04-21T14:03:44;7.88;;;4.75;;
27985;SDS011;15453;53.692;10.168;2023-04-21T14:06:10;11.02;;;5.57;;
27985;SDS011;15453;53.692;10.168;2023-04-21T14:08:35;10.88;;;5.30;;
27985;SDS011;15453;53.692;10.168;2023-04-21T14:11:01;11.98;;;4.85;;
27985;SDS011;15453;53.692;10.168;2023-04-21T14:13:27;10.10;;;4.90;;
27985;SDS011;15453;53.692;10.168;2023-04-21T14:15:53;9.93;;;5.47;;
27985;SDS011;15453;53.692;10.168;2023-04-21T14:18:19;8.68;;;4.47;;
27985;SDS011;15453;53.692;10.168;2023-04-21T14:20:44;7.50;;;4.78;;